Time;durP1;ratioP1;P1;durP2;ratioP2;P2;SDS_P1;SDS_P2;PMS_P1;PMS_P2;Temp;Humidity;BMP_temperature;BMP_pressure;BME280_temperature;BME280_humidity;BME280_pressure;Samples;Min_cycle;Max_cycle;Signal;HPM_P1;HPM_P2
2021/03/17 00:00:43;;;;;;;2.17;1.80;;;3.90;99.90;;;;;;5097355;28;20801;-83
2021/03/17 00:03:10;;;;;;;1.87;1.63;;;3.90;99.90;;;;;;5097234;28;20451;-83
2021/03/17 00:05:37;;;;;;;2.60;2.40;;;3.90;99.90;;;;;;5097261;28;20432;-83
2021/03/17 00:08:04;;;;;;;2.07;1.93;;;3.90;99.90;;;;;;5097132;28;20467;-83
2021/03/17 00:10:33;;;;;;;2.40;2.30;;;3.90;99.90;;;;;;5096991;28;20447;-83
2021/03/17 00:12:59;;;;;;;2.57;2.37;;;3.90;99.90;;;;;;5097052;28;20451;-83
2021/03/17 00:15:28;;;;;;;2.67;2.40;;;3.90;99.90;;;;;;5097118;28;20439;-83
2021/03/17 00:17:55;;;;;;;2.50;2.30;;;3.90;99.90;;;;;;5096954;28;20475;-83
2021/03/17 00:20:23;;;;;;;3.50;2.00;;;3.90;99.90;;;;;;5096676;28;20907;-84
2021/03/17 00:22:50;;;;;;;3.57;2.20;;;3.80;99.90;;;;;;5096908;28;20452;-84
2021/03/17 00:25:18;;;;;;;3.37;2.80;;;3.80;99.90;;;;;;5096970;28;20439;-84
2021/03/17 00:27:45;;;;;;;3.27;2.40;;;3.80;99.90;;;;;;5096717;28;20471;-83
2021/03/17 00:30:12;;;;;;;2.77;2.20;;;3.70;99.90;;;;;;5096772;28;20443;-83
2021/03/17 00:32:38;;;;;;;2.70;2.00;;;3.70;99.90;;;;;;5096357;28;21002;-83
2021/03/17 00:35:07;;;;;;;3.50;2.50;;;3.70;99.90;;;;;;5096745;28;20447;-83
2021/03/17 00:37:33;;;;;;;2.67;2.43;;;3.70;99.90;;;;;;5096573;28;20470;-83
2021/03/17 00:39:59;;;;;;;3.60;2.60;;;3.70;99.90;;;;;;5096554;28;20452;-83
2021/03/17 00:42:26;;;;;;;5.63;3.00;;;3.60;99.90;;;;;;5096525;28;20489;-83
2021/03/17 00:44:52;;;;;;;3.90;2.70;;;3.60;99.90;;;;;;5097060;28;20424;-83
2021/03/17 00:47:18;;;;;;;3.10;2.70;;;3.60;99.90;;;;;;5096396;28;20536;-83
2021/03/17 00:49:44;;;;;;;3.07;2.77;;;3.60;99.90;;;;;;5096385;28;20450;-83
2021/03/17 00:52:11;;;;;;;3.40;2.60;;;3.60;99.90;;;;;;5095883;28;20499;-82
2021/03/17 00:54:38;;;;;;;4.20;2.80;;;3.50;99.90;;;;;;5096322;28;20441;-83
2021/03/17 00:57:04;;;;;;;3.50;2.60;;;3.50;99.90;;;;;;5096208;28;20850;-83
2021/03/17 00:59:30;;;;;;;3.00;2.47;;;3.50;99.90;;;;;;5096238;28;20799;-82
2021/03/17 01:01:57;;;;;;;3.50;3.20;;;3.50;99.90;;;;;;5095694;28;20491;-83
2021/03/17 01:04:23;;;;;;;6.57;2.80;;;3.50;99.90;;;;;;5096209;28;20435;-83
2021/03/17 01:06:49;;;;;;;2.50;2.30;;;3.50;99.90;;;;;;5095987;28;20468;-83
2021/03/17 01:09:17;;;;;;;2.73;2.53;;;3.50;99.90;;;;;;5096548;28;20498;-83
2021/03/17 01:11:43;;;;;;;3.20;1.87;;;3.40;99.90;;;;;;5095660;28;20480;-83
2021/03/17 01:14:10;;;;;;;2.50;2.30;;;3.40;99.90;;;;;;5095975;28;20431;-83
2021/03/17 01:16:36;;;;;;;3.67;2.17;;;3.40;99.90;;;;;;5095495;28;21027;-83
2021/03/17 01:19:03;;;;;;;1.97;1.73;;;3.40;99.90;;;;;;5095926;28;20795;-83
2021/03/17 01:21:29;;;;;;;2.00;1.80;;;3.30;99.90;;;;;;5095826;28;20448;-82
2021/03/17 01:23:55;;;;;;;2.30;2.00;;;3.40;99.90;;;;;;5095749;28;20452;-82
2021/03/17 01:26:22;;;;;;;2.47;2.20;;;3.40;99.90;;;;;;5095317;28;20987;-82
2021/03/17 01:28:48;;;;;;;2.20;1.70;;;3.40;99.90;;;;;;5095343;28;20947;-82
2021/03/17 01:31:15;;;;;;;1.97;1.87;;;3.30;99.90;;;;;;5095229;28;20599;-82
2021/03/17 01:33:41;;;;;;;2.30;1.77;;;3.30;99.90;;;;;;5095567;28;20440;-82
2021/03/17 01:36:07;;;;;;;3.33;1.50;;;3.30;99.90;;;;;;5095538;28;20464;-82
2021/03/17 01:38:34;;;;;;;2.73;2.23;;;3.30;99.90;;;;;;5095477;28;20452;-82
2021/03/17 01:41:01;;;;;;;2.07;1.87;;;3.40;99.90;;;;;;5095036;28;20970;-82
2021/03/17 01:43:28;;;;;;;1.80;1.63;;;3.40;99.90;;;;;;5095360;28;20474;-82
2021/03/17 01:45:54;;;;;;;2.03;1.80;;;3.40;99.90;;;;;;5095320;28;20467;-82
2021/03/17 01:48:20;;;;;;;1.93;1.73;;;3.40;99.90;;;;;;5095277;28;20452;-82
2021/03/17 01:50:49;;;;;;;2.50;1.27;;;3.40;99.90;;;;;;5094966;28;20592;-82
2021/03/17 01:53:19;;;;;;;3.40;1.50;;;3.40;99.90;;;;;;5095227;28;20432;-83
2021/03/17 01:55:45;;;;;;;1.70;1.60;;;3.40;99.90;;;;;;5095087;28;20477;-82
2021/03/17 01:58:12;;;;;;;1.70;1.60;;;3.50;99.90;;;;;;5095078;28;20847;-82
2021/03/17 02:00:40;;;;;;;1.73;1.63;;;3.50;99.90;;;;;;5094990;28;20806;-82
2021/03/17 02:03:08;;;;;;;4.50;1.67;;;3.50;99.90;;;;;;5095006;28;20440;-82
2021/03/17 02:05:38;;;;;;;1.90;1.73;;;3.50;99.90;;;;;;5094622;28;20904;-82
2021/03/17 02:08:06;;;;;;;1.67;1.37;;;3.50;99.90;;;;;;5094814;28;20982;-77
2021/03/17 02:10:33;;;;;;;2.43;1.90;;;3.50;99.90;;;;;;5094715;28;20448;-78
2021/03/17 02:13:23;;;;;;;2.00;1.80;;;3.50;99.90;;;;;;5094244;28;20499;-82
2021/03/17 02:16:03;;;;;;;3.70;1.43;;;3.50;99.90;;;;;;5094767;28;20428;-77
2021/03/17 02:18:39;;;;;;;1.63;1.53;;;3.50;99.90;;;;;;5094763;28;20435;-83
2021/03/17 02:21:17;;;;;;;2.53;1.63;;;3.50;99.90;;;;;;5094774;28;20424;-82
2021/03/17 02:23:53;;;;;;;1.40;1.30;;;3.50;99.90;;;;;;5094828;28;20432;-77
2021/03/17 02:26:56;;;;;;;1.60;1.33;;;3.50;99.90;;;;;;5094483;28;20467;-77
2021/03/17 02:30:07;;;;;;;1.30;1.20;;;3.60;99.90;;;;;;5095437;28;20436;-82
2021/03/17 02:33:02;;;;;;;1.80;1.70;;;3.60;99.90;;;;;;5094588;28;20475;-77
2021/03/17 02:35:31;;;;;;;5.17;2.00;;;3.60;99.90;;;;;;5094447;28;20578;-77
2021/03/17 02:38:04;;;;;;;2.80;1.47;;;3.50;99.90;;;;;;5094517;28;20518;-82
2021/03/17 02:40:32;;;;;;;1.73;1.33;;;3.60;99.90;;;;;;5094412;28;20435;-77
2021/03/17 02:43:04;;;;;;;1.50;1.40;;;3.50;99.90;;;;;;5094512;28;20447;-84
2021/03/17 02:45:32;;;;;;;2.23;1.60;;;3.50;99.90;;;;;;5094421;28;20431;-83
2021/03/17 02:48:04;;;;;;;3.03;1.50;;;3.50;99.90;;;;;;5093778;28;21052;-77
2021/03/17 02:50:33;;;;;;;1.90;1.50;;;3.40;99.90;;;;;;5094220;28;20448;-82
2021/03/17 02:53:01;;;;;;;1.53;1.43;;;3.40;99.90;;;;;;5093841;28;20540;-82
2021/03/17 02:55:32;;;;;;;1.70;1.60;;;3.40;99.90;;;;;;5093811;28;20779;-81
2021/03/17 02:57:59;;;;;;;2.07;1.57;;;3.40;99.90;;;;;;5094014;28;20467;-82
2021/03/17 03:00:27;;;;;;;1.63;1.53;;;3.40;99.90;;;;;;5094041;28;20501;-77
2021/03/17 03:02:55;;;;;;;1.60;1.30;;;3.40;99.90;;;;;;5093979;28;20444;-83
2021/03/17 03:05:23;;;;;;;2.17;1.43;;;3.40;99.90;;;;;;5093652;28;20462;-83
2021/03/17 03:07:52;;;;;;;1.10;1.00;;;3.30;99.90;;;;;;5093879;28;20873;-77
2021/03/17 03:10:21;;;;;;;1.13;1.07;;;3.20;99.90;;;;;;5093931;28;20454;-82
2021/03/17 03:12:48;;;;;;;1.30;1.20;;;3.20;99.90;;;;;;5093561;28;20479;-77
2021/03/17 03:15:17;;;;;;;1.87;1.47;;;3.10;99.90;;;;;;5093830;28;20440;-82
2021/03/17 03:17:44;;;;;;;3.83;1.63;;;3.10;99.90;;;;;;5093658;28;20483;-82
2021/03/17 03:20:13;;;;;;;1.50;1.40;;;3.10;99.90;;;;;;5093713;28;20451;-77
2021/03/17 03:22:41;;;;;;;1.90;1.20;;;3.10;99.90;;;;;;5093608;28;20451;-77
2021/03/17 03:25:10;;;;;;;1.93;1.30;;;3.10;99.90;;;;;;5092697;28;20827;-83
2021/03/17 03:27:37;;;;;;;1.27;1.17;;;3.20;99.90;;;;;;5093336;28;20475;-82
2021/03/17 03:30:06;;;;;;;1.63;1.43;;;3.20;99.90;;;;;;5093319;28;20930;-82
2021/03/17 03:32:33;;;;;;;1.50;1.10;;;3.20;99.90;;;;;;5093174;28;20498;-77
2021/03/17 03:34:59;;;;;;;1.70;1.60;;;3.20;99.90;;;;;;5093186;28;20799;-77
2021/03/17 03:37:26;;;;;;;1.67;1.37;;;3.30;99.90;;;;;;5093175;28;21000;-82
2021/03/17 03:39:52;;;;;;;1.50;1.33;;;3.30;99.90;;;;;;5093183;28;20912;-77
2021/03/17 03:42:19;;;;;;;1.67;1.57;;;3.20;99.90;;;;;;5093565;28;20452;-82
2021/03/17 03:44:45;;;;;;;1.80;1.70;;;3.20;99.90;;;;;;5093592;28;20436;-82
2021/03/17 03:47:11;;;;;;;2.00;1.80;;;3.20;99.90;;;;;;5093102;28;20467;-82
2021/03/17 03:49:38;;;;;;;1.40;1.30;;;3.20;99.90;;;;;;5094294;28;20432;-82
2021/03/17 03:52:09;;;;;;;1.50;1.40;;;3.10;99.90;;;;;;5092973;28;20599;-78
2021/03/17 03:54:42;;;;;;;2.00;1.80;;;3.10;99.90;;;;;;5093392;28;20432;-77
2021/03/17 03:57:14;;;;;;;2.20;1.47;;;3.00;99.90;;;;;;5093156;28;20983;-82
2021/03/17 03:59:45;;;;;;;2.07;1.87;;;3.00;99.90;;;;;;5093076;28;20440;-82
2021/03/17 04:02:17;;;;;;;2.30;1.97;;;3.00;99.90;;;;;;5093415;28;20816;-82
2021/03/17 04:04:48;;;;;;;2.07;1.90;;;3.00;99.90;;;;;;5093411;28;20432;-78
2021/03/17 04:07:16;;;;;;;3.10;1.90;;;3.00;99.90;;;;;;5093166;28;20452;-77
2021/03/17 04:09:46;;;;;;;2.37;2.17;;;3.00;99.90;;;;;;5093344;28;20432;-82
2021/03/17 04:12:13;;;;;;;2.23;2.03;;;3.10;99.90;;;;;;5093179;28;20488;-82
2021/03/17 04:14:44;;;;;;;2.90;2.53;;;3.10;99.90;;;;;;5093123;28;20447;-77
2021/03/17 04:17:19;;;;;;;4.83;2.00;;;3.20;99.90;;;;;;5093130;28;20475;-77
2021/03/17 04:19:49;;;;;;;2.13;1.93;;;3.20;99.90;;;;;;5092801;28;20941;-82
2021/03/17 04:22:17;;;;;;;2.37;2.17;;;3.30;99.90;;;;;;5093555;28;20489;-78
2021/03/17 04:24:46;;;;;;;2.90;2.27;;;3.30;99.90;;;;;;5092747;28;20962;-77
2021/03/17 04:27:15;;;;;;;1.90;1.80;;;3.30;99.90;;;;;;5093037;28;20463;-82
2021/03/17 04:29:44;;;;;;;1.50;1.43;;;3.30;99.90;;;;;;5093066;28;20494;-82
2021/03/17 04:32:11;;;;;;;2.53;2.33;;;3.30;99.90;;;;;;5092914;28;20494;-82
2021/03/17 04:34:39;;;;;;;2.30;2.13;;;3.30;99.90;;;;;;5092921;28;20447;-82
2021/03/17 04:37:06;;;;;;;2.43;1.90;;;3.30;99.90;;;;;;5094812;28;20467;-82
2021/03/17 04:39:32;;;;;;;2.07;1.97;;;3.30;99.90;;;;;;5096669;28;20842;-82
2021/03/17 04:41:59;;;;;;;3.03;2.00;;;3.30;99.90;;;;;;5096597;28;20450;-82
2021/03/17 04:44:26;;;;;;;4.43;2.10;;;3.40;99.90;;;;;;5096550;28;20451;-82
2021/03/17 04:46:55;;;;;;;1.73;1.63;;;3.40;99.90;;;;;;5096384;28;20497;-82
2021/03/17 04:49:22;;;;;;;2.77;2.47;;;3.40;99.90;;;;;;5096156;28;20436;-82
2021/03/17 04:51:49;;;;;;;7.67;2.07;;;3.30;99.90;;;;;;5095936;28;20920;-82
2021/03/17 04:54:16;;;;;;;3.13;1.97;;;3.30;99.90;;;;;;5096344;28;20455;-82
2021/03/17 04:56:44;;;;;;;3.17;2.20;;;3.30;99.90;;;;;;5095893;28;20468;-82
2021/03/17 04:59:16;;;;;;;4.27;2.20;;;3.30;99.90;;;;;;5096261;28;20459;-82
2021/03/17 05:01:44;;;;;;;2.77;2.53;;;3.30;99.90;;;;;;5097040;28;20420;-82
2021/03/17 05:04:13;;;;;;;3.80;2.83;;;3.30;99.90;;;;;;5096182;28;20448;-82
2021/03/17 05:06:42;;;;;;;2.50;2.20;;;3.30;99.90;;;;;;5095711;28;21028;-82
2021/03/17 05:09:09;;;;;;;3.57;2.90;;;3.30;99.90;;;;;;5096119;28;20459;-82
2021/03/17 05:11:37;;;;;;;6.00;2.83;;;3.40;99.90;;;;;;5095954;28;20467;-82
2021/03/17 05:14:05;;;;;;;4.10;3.27;;;3.40;99.90;;;;;;5095994;28;20444;-82
2021/03/17 05:16:32;;;;;;;4.40;3.10;;;3.40;99.90;;;;;;5095781;28;20474;-82
2021/03/17 05:19:00;;;;;;;4.17;3.73;;;3.40;99.90;;;;;;5096712;28;20478;-82
2021/03/17 05:21:28;;;;;;;4.90;3.47;;;3.40;99.90;;;;;;5095524;28;20841;-82
2021/03/17 05:23:56;;;;;;;3.40;2.70;;;3.40;99.90;;;;;;5095479;28;20974;-82
2021/03/17 05:26:23;;;;;;;3.97;2.57;;;3.40;99.90;;;;;;5095661;28;20468;-82
2021/03/17 05:28:51;;;;;;;3.50;3.20;;;3.40;99.90;;;;;;5095655;28;20448;-82
2021/03/17 05:31:19;;;;;;;4.23;3.23;;;3.40;99.90;;;;;;5095555;28;20464;-82
2021/03/17 05:33:46;;;;;;;5.07;3.60;;;3.40;99.90;;;;;;5095590;28;20432;-82
2021/03/17 05:36:13;;;;;;;4.90;3.60;;;3.40;99.90;;;;;;5095468;28;20472;-82
2021/03/17 05:38:40;;;;;;;3.50;3.20;;;3.40;99.90;;;;;;5095436;28;20486;-82
2021/03/17 05:41:06;;;;;;;5.37;4.03;;;3.40;99.90;;;;;;5095458;28;20493;-82
2021/03/17 05:43:34;;;;;;;4.97;3.97;;;3.40;99.90;;;;;;5095451;28;20444;-77
2021/03/17 05:46:04;;;;;;;8.47;5.40;;;3.40;99.90;;;;;;5095014;28;20439;-82
2021/03/17 05:48:32;;;;;;;6.73;4.83;;;3.40;99.90;;;;;;5094321;28;20444;-82
2021/03/17 05:50:59;;;;;;;7.27;4.83;;;3.40;99.90;;;;;;5094984;28;20511;-77
2021/03/17 05:53:26;;;;;;;6.83;4.97;;;3.40;99.90;;;;;;5095331;28;20482;-77
2021/03/17 05:55:53;;;;;;;10.13;6.13;;;3.40;99.90;;;;;;5095137;28;20471;-77
2021/03/17 05:58:21;;;;;;;7.10;4.97;;;3.40;99.90;;;;;;5095178;28;20456;-77
2021/03/17 06:00:48;;;;;;;7.80;5.60;;;3.40;99.90;;;;;;5095125;28;20922;-82
2021/03/17 06:03:15;;;;;;;7.40;5.23;;;3.50;99.90;;;;;;5095027;28;20512;-82
2021/03/17 06:05:44;;;;;;;9.23;5.80;;;3.50;99.90;;;;;;5094986;28;20452;-77
2021/03/17 06:08:14;;;;;;;8.57;5.30;;;3.50;99.90;;;;;;5094949;28;20455;-82
2021/03/17 06:10:41;;;;;;;11.70;6.53;;;3.40;99.90;;;;;;5094881;28;20432;-77
2021/03/17 06:13:10;;;;;;;9.30;6.40;;;3.40;99.90;;;;;;5094616;28;20978;-82
2021/03/17 06:15:38;;;;;;;8.83;6.47;;;3.40;99.90;;;;;;5094795;28;20455;-82
2021/03/17 06:18:10;;;;;;;9.03;5.97;;;3.40;99.90;;;;;;5094725;28;20464;-77
2021/03/17 06:20:36;;;;;;;10.30;6.10;;;3.40;99.90;;;;;;5094826;28;20432;-82
2021/03/17 06:23:03;;;;;;;10.73;6.70;;;3.40;99.90;;;;;;5094631;28;20471;-77
2021/03/17 06:25:30;;;;;;;11.53;6.63;;;3.50;99.90;;;;;;5094721;28;20444;-82
2021/03/17 06:27:58;;;;;;;10.50;6.47;;;3.50;99.90;;;;;;5094278;28;20475;-77
2021/03/17 06:30:25;;;;;;;10.33;6.07;;;3.50;99.90;;;;;;5094610;28;20498;-82
2021/03/17 06:32:51;;;;;;;15.53;8.00;;;3.50;99.90;;;;;;5094101;28;20971;-82
2021/03/17 06:35:19;;;;;;;9.73;6.63;;;3.50;99.90;;;;;;5094159;28;21012;-82
2021/03/17 06:37:46;;;;;;;11.03;6.87;;;3.50;99.90;;;;;;5094444;28;20472;-77
2021/03/17 06:40:24;;;;;;;11.70;7.33;;;3.50;99.90;;;;;;5094376;28;20428;-82
2021/03/17 06:42:51;;;;;;;15.57;6.90;;;3.50;99.90;;;;;;5094291;28;20501;-82
2021/03/17 06:45:30;;;;;;;14.07;7.70;;;3.60;99.90;;;;;;5094295;28;20501;-82
2021/03/17 06:47:57;;;;;;;10.80;6.63;;;3.70;99.90;;;;;;5093943;28;20559;-82
2021/03/17 06:50:29;;;;;;;12.80;8.10;;;3.70;99.90;;;;;;5094238;28;20437;-82
2021/03/17 06:52:55;;;;;;;14.60;7.40;;;3.60;99.90;;;;;;5093633;28;20484;-78
2021/03/17 06:55:23;;;;;;;13.60;7.87;;;3.60;99.90;;;;;;5093822;28;20851;-78
2021/03/17 06:57:51;;;;;;;10.70;6.40;;;3.60;99.90;;;;;;5093687;28;20472;-77
2021/03/17 07:00:27;;;;;;;9.30;6.50;;;3.50;99.90;;;;;;5093832;28;20439;-84
2021/03/17 07:02:56;;;;;;;13.13;7.30;;;3.40;99.90;;;;;;5093990;28;20471;-82
2021/03/17 07:05:40;;;;;;;10.60;6.93;;;3.30;99.90;;;;;;5093932;28;20432;-84
2021/03/17 07:08:08;;;;;;;11.40;6.97;;;3.20;99.90;;;;;;5093873;28;20836;-78
2021/03/17 07:10:40;;;;;;;10.77;6.40;;;3.00;99.90;;;;;;5093606;28;20923;-83
2021/03/17 07:13:07;;;;;;;8.50;6.07;;;2.90;99.90;;;;;;5093470;28;20828;-77
2021/03/17 07:15:35;;;;;;;8.17;5.60;;;2.70;99.90;;;;;;5093538;28;20443;-77
2021/03/17 07:18:23;;;;;;;9.27;5.37;;;2.60;99.90;;;;;;5093482;28;20459;-78
2021/03/17 07:20:51;;;;;;;7.43;4.90;;;2.60;99.90;;;;;;5093734;28;20451;-82
2021/03/17 07:23:25;;;;;;;8.13;5.67;;;2.50;99.90;;;;;;5094547;28;20505;-78
2021/03/17 07:26:16;;;;;;;8.83;4.63;;;2.50;99.90;;;;;;5093568;28;20441;-83
2021/03/17 07:29:07;;;;;;;8.97;5.20;;;2.50;99.90;;;;;;5093682;28;20432;-77
2021/03/17 07:31:35;;;;;;;8.47;5.20;;;2.50;99.90;;;;;;5093156;28;20460;-77
2021/03/17 07:34:11;;;;;;;10.67;5.77;;;2.60;99.90;;;;;;5093309;28;20429;-83
2021/03/17 07:36:41;;;;;;;10.70;5.77;;;2.50;99.90;;;;;;5093183;28;20998;-83
2021/03/17 07:39:11;;;;;;;9.03;4.90;;;2.50;99.90;;;;;;5093495;28;20480;-83
2021/03/17 07:41:38;;;;;;;6.63;4.30;;;2.60;99.90;;;;;;5093531;28;20432;-78
2021/03/17 07:44:07;;;;;;;9.50;5.67;;;2.60;99.90;;;;;;5093448;28;20433;-78
2021/03/17 07:46:34;;;;;;;8.20;5.00;;;2.70;99.90;;;;;;5093369;28;20463;-83
2021/03/17 07:49:02;;;;;;;8.87;5.33;;;2.80;99.90;;;;;;5093406;28;20486;-78
2021/03/17 07:51:30;;;;;;;12.07;6.13;;;2.80;99.90;;;;;;5093006;28;21076;-83
2021/03/17 07:53:58;;;;;;;9.87;5.40;;;3.00;99.90;;;;;;5093168;28;20509;-83
2021/03/17 07:56:25;;;;;;;10.33;5.53;;;3.00;99.90;;;;;;5093439;28;20464;-78
2021/03/17 07:58:53;;;;;;;9.60;5.67;;;3.10;99.90;;;;;;5093048;28;20896;-76
2021/03/17 08:01:21;;;;;;;9.63;5.63;;;3.20;99.90;;;;;;5093384;28;20447;-77
2021/03/17 08:03:49;;;;;;;9.07;5.80;;;3.50;99.90;;;;;;5093215;28;20456;-82
2021/03/17 08:06:16;;;;;;;9.97;6.00;;;3.70;99.90;;;;;;5093217;28;20475;-81
2021/03/17 08:08:44;;;;;;;10.60;6.27;;;3.80;99.90;;;;;;5093163;28;20832;-77
2021/03/17 08:11:12;;;;;;;10.67;6.53;;;4.00;99.90;;;;;;5093464;28;20996;-83
2021/03/17 08:13:41;;;;;;;12.90;5.40;;;4.00;99.90;;;;;;5097463;28;20488;-77
2021/03/17 08:16:08;;;;;;;9.77;6.00;;;4.10;99.90;;;;;;5097085;28;20468;-82
2021/03/17 08:18:43;;;;;;;9.77;5.73;;;4.10;99.90;;;;;;5096869;28;21004;-77
2021/03/17 08:21:09;;;;;;;12.60;7.03;;;4.10;99.90;;;;;;5097021;28;20443;-81
2021/03/17 08:23:48;;;;;;;11.03;6.47;;;4.10;99.90;;;;;;5097027;28;20436;-77
2021/03/17 08:26:35;;;;;;;8.90;5.53;;;4.20;99.90;;;;;;5096980;28;20461;-81
2021/03/17 08:29:01;;;;;;;9.07;5.97;;;4.20;99.90;;;;;;5096613;28;20444;-82
2021/03/17 08:31:50;;;;;;;7.00;5.03;;;4.30;99.90;;;;;;5096796;28;20810;-81
2021/03/17 08:34:24;;;;;;;8.43;5.60;;;4.20;99.90;;;;;;5096496;28;20808;-82
2021/03/17 08:36:53;;;;;;;12.63;5.60;;;4.10;99.90;;;;;;5096677;28;20471;-82
2021/03/17 08:39:45;;;;;;;9.43;5.57;;;4.10;99.90;;;;;;5096700;28;20454;-83
2021/03/17 08:42:14;;;;;;;10.83;6.20;;;4.20;99.90;;;;;;5077346;28;20459;-77
2021/03/17 08:44:48;;;;;;;10.60;5.50;;;4.40;99.90;;;;;;5096575;28;20424;-78
2021/03/17 08:47:27;;;;;;;8.80;5.37;;;4.50;99.90;;;;;;5096447;28;20491;-77
2021/03/17 08:49:55;;;;;;;8.33;5.50;;;4.60;99.90;;;;;;5096466;28;20439;-82
2021/03/17 08:52:23;;;;;;;8.77;5.30;;;4.60;99.90;;;;;;5096125;28;20527;-82
2021/03/17 08:55:02;;;;;;;10.73;5.43;;;4.60;99.90;;;;;;5096576;28;20447;-77
2021/03/17 08:57:59;;;;;;;9.90;5.00;;;4.80;99.90;;;;;;5096411;28;20820;-82
2021/03/17 09:00:58;;;;;;;9.10;5.30;;;5.30;99.90;;;;;;5096413;28;20484;-82
2021/03/17 09:03:50;;;;;;;7.67;4.70;;;5.70;99.90;;;;;;5013920;28;20471;-82
2021/03/17 09:06:23;;;;;;;6.00;4.37;;;6.30;99.90;;;;;;5092614;28;20564;-76
2021/03/17 09:09:16;;;;;;;7.90;5.07;;;7.50;99.90;;;;;;5096224;28;20428;-76
2021/03/17 09:11:52;;;;;;;10.47;4.50;;;8.90;99.90;;;;;;5096133;28;20468;-84
2021/03/17 09:14:22;;;;;;;6.40;4.70;;;10.50;99.90;;;;;;5095926;28;20923;-77
2021/03/17 09:17:16;;;;;;;4.97;4.30;;;11.80;99.90;;;;;;5096254;28;20475;-77
2021/03/17 09:19:57;;;;;;;6.03;4.53;;;13.10;99.90;;;;;;5095981;28;20431;-85
2021/03/17 09:23:03;;;;;;;5.23;4.33;;;13.00;98.40;;;;;;5095805;28;20790;-85
2021/03/17 09:25:32;;;;;;;8.27;4.63;;;13.00;96.60;;;;;;5084712;28;20462;-85
2021/03/17 09:28:02;;;;;;;5.73;3.50;;;14.20;93.10;;;;;;5095751;28;20531;-85
2021/03/17 09:30:33;;;;;;;6.43;4.40;;;14.80;91.00;;;;;;5095449;28;20432;-85
2021/03/17 09:33:03;;;;;;;4.50;3.70;;;14.50;87.40;;;;;;5095355;28;20998;-85
2021/03/17 09:35:31;;;;;;;5.33;4.00;;;14.40;90.70;;;;;;5095692;28;20434;-85
2021/03/17 09:38:08;;;;;;;4.13;3.73;;;14.10;88.60;;;;;;5095482;28;20480;-85
2021/03/17 09:40:38;;;;;;;5.13;4.00;;;14.60;85.50;;;;;;5095461;28;20432;-85
2021/03/17 09:43:22;;;;;;;4.30;3.53;;;14.30;78.50;;;;;;5095545;28;20482;-86
2021/03/17 09:45:52;;;;;;;3.80;3.30;;;13.50;79.50;;;;;;5095842;28;20448;-84
2021/03/17 09:48:18;;;;;;;5.20;3.50;;;12.20;82.10;;;;;;5096252;28;20481;-84
2021/03/17 09:50:45;;;;;;;4.83;3.60;;;11.20;83.60;;;;;;5094875;28;20918;-84
2021/03/17 09:53:14;;;;;;;3.20;2.90;;;10.60;90.00;;;;;;5095549;28;20871;-85
2021/03/17 09:55:40;;;;;;;4.50;3.00;;;10.80;90.20;;;;;;5095334;28;20436;-85
2021/03/17 09:58:08;;;;;;;3.90;2.87;;;11.10;86.50;;;;;;5094949;28;20464;-85
2021/03/17 10:00:35;;;;;;;3.50;2.90;;;11.00;86.10;;;;;;5095362;28;20428;-84
2021/03/17 10:03:03;;;;;;;2.90;2.57;;;10.70;86.00;;;;;;5095420;28;20428;-84
2021/03/17 10:05:31;;;;;;;5.30;3.30;;;10.40;86.70;;;;;;5095448;28;20957;-85
2021/03/17 10:07:58;;;;;;;5.07;2.87;;;10.00;90.60;;;;;;5095067;28;20464;-84
2021/03/17 10:10:24;;;;;;;5.23;2.97;;;9.60;91.90;;;;;;5094980;28;20436;-84
2021/03/17 10:12:51;;;;;;;3.90;3.10;;;9.30;92.70;;;;;;5094869;28;20590;-85
2021/03/17 10:15:21;;;;;;;3.00;2.70;;;8.90;91.00;;;;;;5094952;28;20413;-84
2021/03/17 10:17:48;;;;;;;4.43;2.97;;;8.60;92.60;;;;;;5094822;28;20484;-85
2021/03/17 10:20:17;;;;;;;3.80;2.53;;;8.90;96.80;;;;;;5094539;28;20437;-85
2021/03/17 10:22:44;;;;;;;2.47;2.13;;;10.30;97.60;;;;;;5094778;28;20486;-85
2021/03/17 10:25:13;;;;;;;3.47;2.30;;;11.90;91.40;;;;;;5094424;28;20439;-85
2021/03/17 10:27:41;;;;;;;2.90;2.10;;;12.90;82.60;;;;;;5094421;28;20453;-85
2021/03/17 10:30:11;;;;;;;2.63;2.43;;;13.50;82.70;;;;;;5094785;28;20474;-86
2021/03/17 10:32:39;;;;;;;3.97;2.90;;;13.90;73.90;;;;;;5094927;28;20468;-84
2021/03/17 10:35:09;;;;;;;2.73;2.30;;;14.00;68.30;;;;;;5093878;28;20439;-85
2021/03/17 10:37:37;;;;;;;3.37;2.83;;;14.00;69.30;;;;;;5094490;28;20471;-85
2021/03/17 10:40:10;;;;;;;2.87;1.60;;;14.50;69.80;;;;;;5094488;28;20432;-85
2021/03/17 10:42:43;;;;;;;1.33;1.23;;;14.50;64.80;;;;;;5094606;28;20428;-83
2021/03/17 10:45:11;;;;;;;2.50;1.83;;;15.10;69.60;;;;;;5094528;28;20468;-85
2021/03/17 10:47:42;;;;;;;2.13;1.97;;;14.90;65.40;;;;;;5094162;28;20475;-85
2021/03/17 10:50:10;;;;;;;2.43;2.20;;;14.60;66.90;;;;;;5094150;28;20433;-84
2021/03/17 10:52:39;;;;;;;2.60;2.23;;;14.40;66.30;;;;;;5093640;28;20487;-85
2021/03/17 10:55:10;;;;;;;2.23;1.83;;;13.70;63.30;;;;;;5094174;28;20428;-84
2021/03/17 10:57:37;;;;;;;4.50;2.37;;;13.40;67.30;;;;;;5094245;28;20460;-87
2021/03/17 11:00:19;;;;;;;2.00;1.83;;;13.20;65.50;;;;;;5094465;28;20440;-87
2021/03/17 11:02:46;;;;;;;2.57;2.30;;;12.70;67.60;;;;;;5094356;28;20424;-87
2021/03/17 11:05:23;;;;;;;2.10;1.90;;;12.20;70.90;;;;;;5094225;28;20436;-87
2021/03/17 11:08:09;;;;;;;2.60;1.53;;;11.90;71.50;;;;;;5094270;28;20878;-87
2021/03/17 11:11:01;;;;;;;2.27;2.07;;;11.80;72.20;;;;;;5094035;28;20444;-87
2021/03/17 11:13:43;;;;;;;2.30;2.17;;;11.50;72.10;;;;;;5087466;28;20480;-87
2021/03/17 11:16:24;;;;;;;2.23;1.83;;;11.10;73.80;;;;;;5094089;28;20468;-87
2021/03/17 11:18:52;;;;;;;2.50;1.93;;;10.70;75.10;;;;;;5093842;28;20954;-87
2021/03/17 11:21:23;;;;;;;2.00;1.80;;;10.40;72.50;;;;;;5094975;28;20424;-87
2021/03/17 11:23:52;;;;;;;2.27;1.97;;;10.00;74.50;;;;;;5094137;28;20433;-87
2021/03/17 11:26:21;;;;;;;2.50;1.97;;;9.90;78.00;;;;;;5094106;28;20460;-88
2021/03/17 11:28:48;;;;;;;2.37;1.73;;;9.80;78.00;;;;;;5094224;28;20485;-88
2021/03/17 11:31:23;;;;;;;4.90;2.40;;;9.70;78.20;;;;;;5093962;28;20431;-87
2021/03/17 11:33:50;;;;;;;2.40;2.20;;;9.80;80.60;;;;;;5094012;28;20463;-87
2021/03/17 11:36:16;;;;;;;1.83;1.73;;;9.70;78.00;;;;;;5095020;28;20472;-87
2021/03/17 11:38:43;;;;;;;2.77;2.33;;;9.70;78.70;;;;;;5093627;28;20953;-87
2021/03/17 11:41:09;;;;;;;3.43;2.00;;;9.60;80.80;;;;;;5093898;28;20436;-87
2021/03/17 11:43:35;;;;;;;2.03;1.93;;;9.50;80.70;;;;;;5093840;28;20447;-87
2021/03/17 11:46:02;;;;;;;3.53;2.10;;;9.40;82.60;;;;;;5094034;28;20447;-87
2021/03/17 11:48:30;;;;;;;1.70;1.60;;;9.30;82.80;;;;;;5098173;28;20443;-87
2021/03/17 11:50:59;;;;;;;2.90;1.90;;;9.30;83.20;;;;;;5098220;28;20490;-87
2021/03/17 11:53:26;;;;;;;2.50;2.27;;;9.40;80.50;;;;;;5098112;28;20467;-87
2021/03/17 11:55:53;;;;;;;3.03;2.10;;;9.10;83.70;;;;;;5097976;28;20546;-87
2021/03/17 11:58:19;;;;;;;3.33;2.20;;;8.90;81.90;;;;;;5097967;28;20446;-87
2021/03/17 12:00:46;;;;;;;3.10;2.50;;;8.60;83.00;;;;;;5097764;28;20428;-87
2021/03/17 12:03:12;;;;;;;2.30;2.10;;;8.30;86.00;;;;;;5097940;28;20435;-87
2021/03/17 12:05:41;;;;;;;4.80;2.20;;;8.10;89.30;;;;;;5097911;28;20432;-87
2021/03/17 12:08:08;;;;;;;3.13;2.23;;;7.90;89.60;;;;;;5097757;28;21002;-87
2021/03/17 12:10:35;;;;;;;4.37;2.43;;;7.80;88.10;;;;;;5097587;28;20896;-87
2021/03/17 12:13:01;;;;;;;3.63;3.20;;;7.70;90.30;;;;;;5097457;28;20970;-87
2021/03/17 12:15:29;;;;;;;2.90;2.60;;;7.70;89.40;;;;;;5097845;28;20825;-87
2021/03/17 12:17:55;;;;;;;2.67;2.40;;;7.70;91.00;;;;;;5097585;28;20464;-88
2021/03/17 12:20:24;;;;;;;5.37;3.07;;;7.60;92.00;;;;;;5097644;28;20434;-87
2021/03/17 12:22:50;;;;;;;3.63;3.07;;;7.70;92.40;;;;;;5097255;28;20943;-87
2021/03/17 12:25:17;;;;;;;4.67;3.10;;;7.60;93.80;;;;;;5097330;28;20489;-76
2021/03/17 12:27:44;;;;;;;3.70;3.40;;;7.40;95.70;;;;;;5096711;28;20521;-77
2021/03/17 12:30:12;;;;;;;4.07;3.30;;;7.20;97.20;;;;;;5096786;28;20442;-77
2021/03/17 12:32:39;;;;;;;6.33;3.87;;;6.90;99.20;;;;;;5097505;28;20486;-77
2021/03/17 12:35:07;;;;;;;5.00;3.50;;;6.50;99.90;;;;;;5097728;28;20448;-78
2021/03/17 12:37:33;;;;;;;4.90;3.50;;;6.20;99.90;;;;;;5096598;28;20471;-77
2021/03/17 12:40:01;;;;;;;7.83;4.73;;;6.10;99.90;;;;;;5096653;28;20525;-76
2021/03/17 12:42:29;;;;;;;10.00;4.47;;;6.20;99.90;;;;;;5096504;28;20440;-76
2021/03/17 12:44:55;;;;;;;8.27;4.30;;;6.50;99.90;;;;;;5096588;28;20428;-76
2021/03/17 12:47:22;;;;;;;4.53;3.40;;;6.70;99.90;;;;;;5096039;28;20463;-76
2021/03/17 12:49:48;;;;;;;5.97;4.20;;;6.80;99.90;;;;;;5096482;28;20470;-76
2021/03/17 12:52:14;;;;;;;9.43;3.90;;;6.90;99.90;;;;;;5095888;28;20492;-76
2021/03/17 12:54:40;;;;;;;8.50;5.00;;;6.90;99.90;;;;;;5096421;28;20415;-76
2021/03/17 12:57:09;;;;;;;5.33;4.27;;;6.90;99.90;;;;;;5095798;28;20459;-76
2021/03/17 12:59:36;;;;;;;6.80;4.30;;;6.80;99.90;;;;;;5095895;28;20448;-76
2021/03/17 13:02:02;;;;;;;7.50;5.03;;;6.50;99.90;;;;;;5095899;28;20988;-76
2021/03/17 13:04:29;;;;;;;7.10;4.83;;;6.30;99.90;;;;;;5096226;28;20432;-76
2021/03/17 13:06:55;;;;;;;11.80;5.60;;;6.10;99.90;;;;;;5095786;28;21001;-76
2021/03/17 13:09:21;;;;;;;8.40;5.33;;;5.80;99.90;;;;;;5096062;28;20448;-75